Time;durP1;ratioP1;P1;durP2;ratioP2;P2;SDS_P1;SDS_P2;PMS_P1;PMS_P2;Temp;Humidity;BMP_temperature;BMP_pressure;BME280_temperature;BME280_humidity;BME280_pressure;Samples;Min_cycle;Max_cycle;Signal;HPM_P1;HPM_P2
2022/08/18 06:01:20;;;;;;;;;;;;;;;21.86;70.79;96515.25;4208028;28;10274;-71
2022/08/18 06:03:27;;;;;;;;;;;;;;;22.18;69.73;96536.47;4198063;28;5748;-71
2022/08/18 06:05:35;;;;;;;;;;;;;;;22.43;69.41;96538.31;4197804;28;5712;-71
2022/08/18 06:07:45;;;;;;;;;;;;;;;22.59;68.85;96535.28;4198121;28;5820;-72
2022/08/18 06:09:50;;;;;;;;;;;;;;;22.72;68.31;96538.47;4202706;28;5800;-72
2022/08/18 06:11:56;;;;;;;;;;;;;;;22.83;68.04;96548.94;4202343;28;5959;-72
2022/08/18 06:14:00;;;;;;;;;;;;;;;22.94;67.76;96547.00;4207090;28;5809;-72
2022/08/18 06:16:11;;;;;;;;;;;;;;;23.03;67.84;96539.16;4201450;28;5659;-73
2022/08/18 06:18:42;;;;;;;;;;;;;;;23.12;67.22;96548.28;4208471;28;5712;-72
2022/08/18 06:21:04;;;;;;;;;;;;;;;23.21;67.05;96560.84;4196941;28;5721;-74
2022/08/18 06:23:23;;;;;;;;;;;;;;;23.25;67.08;96547.63;4202405;28;5676;-75
2022/08/18 06:25:27;;;;;;;;;;;;;;;;;;4207990;28;5725;-73
2022/08/18 06:27:43;;;;;;;;;;;;;;;23.35;66.45;96530.59;4212789;28;5707;-72
2022/08/18 06:30:04;;;;;;;;;;;;;;;23.39;66.53;96520.84;4200151;28;5835;-72
2022/08/18 06:32:16;;;;;;;;;;;;;;;23.45;66.31;96525.13;4212979;28;5699;-73
2022/08/18 06:34:31;;;;;;;;;;;;;;;23.49;65.97;96520.75;4205915;28;6228;-73
2022/08/18 06:36:40;;;;;;;;;;;;;;;23.54;66.22;96518.00;4198783;28;5720;-74
2022/08/18 06:38:57;;;;;;;;;;;;;;;23.57;65.99;96530.16;4214542;28;5083;-73
2022/08/18 06:41:10;;;;;;;;;;;;;;;23.58;65.83;96559.59;4214393;28;5739;-74
2022/08/18 06:43:36;;;;;;;;;;;;;;;23.59;65.13;96563.09;4213199;28;5699;-73
2022/08/18 06:45:41;;;;;;;;;;;;;;;23.58;65.39;96562.28;4209781;28;5773;-74
2022/08/18 06:47:52;;;;;;;;;;;;;;;23.56;65.33;96564.44;4225144;28;5624;-75
2022/08/18 06:50:03;;;;;;;;;;;;;;;23.56;65.12;96548.25;4210252;28;5695;-74
2022/08/18 06:52:25;;;;;;;;;;;;;;;23.60;64.99;96554.69;4213033;28;5727;-76
2022/08/18 06:54:29;;;;;;;;;;;;;;;23.62;64.44;96551.72;4213156;28;5798;-73
2022/08/18 06:56:45;;;;;;;;;;;;;;;23.60;64.85;96554.69;4213667;28;5789;-74
2022/08/18 06:58:49;;;;;;;;;;;;;;;23.60;64.69;96543.91;4212311;28;6377;-74
2022/08/18 07:01:00;;;;;;;;;;;;;;;23.63;64.66;96537.94;4198293;28;5724;-75
2022/08/18 07:03:11;;;;;;;;;;;;;;;23.67;64.21;96532.78;4201653;28;5722;-73
2022/08/18 07:05:23;;;;;;;;;;;;;;;23.69;64.40;96531.44;4202492;28;5900;-75
2022/08/18 07:07:33;;;;;;;;;;;;;;;23.67;64.16;96522.81;4201528;28;5690;-75
2022/08/18 07:09:42;;;;;;;;;;;;;;;23.69;64.21;96530.63;4203172;28;5881;-75
2022/08/18 07:12:00;;;;;;;;;;;;;;;23.71;63.77;96529.25;4192652;28;6422;-75
2022/08/18 07:14:14;;;;;;;;;;;;;;;23.72;63.85;96511.97;4196258;28;6409;-73
2022/08/18 07:16:23;;;;;;;;;;;;;;;23.75;63.66;96508.69;4202051;28;5774;-73
2022/08/18 07:18:46;;;;;;;;;;;;;;;23.74;63.98;96507.06;4186249;28;5708;-74
2022/08/18 07:20:55;;;;;;;;;;;;;;;23.75;64.07;96519.47;4185847;28;5705;-74
2022/08/18 07:23:01;;;;;;;;;;;;;;;23.77;63.65;96511.91;4199264;28;5819;-74
2022/08/18 07:25:23;;;;;;;;;;;;;;;23.78;63.49;96516.25;4202139;28;5822;-74
2022/08/18 07:27:44;;;;;;;;;;;;;;;23.81;63.48;96518.38;4201510;28;5695;-73
2022/08/18 07:30:08;;;;;;;;;;;;;;;23.83;63.01;96514.56;4201383;28;5782;-72
2022/08/18 07:32:21;;;;;;;;;;;;;;;23.83;62.95;96507.28;4201097;28;5710;-72
2022/08/18 07:34:28;;;;;;;;;;;;;;;23.84;62.94;96521.56;4201445;28;5079;-73
2022/08/18 07:36:40;;;;;;;;;;;;;;;23.85;62.73;96520.47;4196219;28;5688;-72
2022/08/18 07:38:50;;;;;;;;;;;;;;;23.87;63.08;96526.41;4191268;28;5711;-72
2022/08/18 07:40:58;;;;;;;;;;;;;;;23.92;62.71;96531.78;4200928;28;5703;-73
2022/08/18 07:43:05;;;;;;;;;;;;;;;23.95;62.96;96523.09;4200302;28;5739;-74
2022/08/18 07:45:19;;;;;;;;;;;;;;;23.98;62.72;96511.72;4200660;28;5698;-73
2022/08/18 07:47:32;;;;;;;;;;;;;;;24.01;62.74;96500.34;4194241;28;6888;-73
2022/08/18 07:49:36;;;;;;;;;;;;;;;24.04;62.51;96499.78;4201114;28;5785;-73
2022/08/18 07:52:06;;;;;;;;;;;;;;;24.03;62.26;96488.19;4199171;28;6019;-73
2022/08/18 07:54:53;;;;;;;;;;;;;;;24.02;62.38;96483.06;4199462;28;5706;-74
2022/08/18 07:57:03;;;;;;;;;;;;;;;24.07;62.23;96478.41;4185003;28;7690;-74
2022/08/18 07:59:16;;;;;;;;;;;;;;;24.12;62.17;96474.84;4200969;28;5698;-73
2022/08/18 08:01:28;;;;;;;;;;;;;;;24.15;62.31;96479.69;4198865;28;5807;-73
2022/08/18 08:03:45;;;;;;;;;;;;;;;24.18;61.82;96472.91;4199981;28;5695;-74
2022/08/18 08:05:56;;;;;;;;;;;;;;;24.20;61.93;96468.81;4200440;28;5786;-75
2022/08/18 08:08:09;;;;;;;;;;;;;;;24.22;61.62;96479.31;4200455;28;5691;-74
2022/08/18 08:10:34;;;;;;;;;;;;;;;24.26;61.59;96488.47;4200900;28;5819;-74
2022/08/18 08:12:43;;;;;;;;;;;;;;;24.28;61.50;96480.88;4200128;28;5703;-75
2022/08/18 08:14:48;;;;;;;;;;;;;;;24.30;61.87;96495.75;4201769;28;5691;-73
2022/08/18 08:17:03;;;;;;;;;;;;;;;24.28;61.45;96495.19;4194815;28;5747;-74
2022/08/18 08:19:21;;;;;;;;;;;;;;;24.30;61.43;96509.25;4186836;28;5783;-73
2022/08/18 08:22:01;;;;;;;;;;;;;;;24.36;61.44;96516.22;4184506;28;5716;-75
2022/08/18 08:24:13;;;;;;;;;;;;;;;24.43;61.30;96518.53;4199483;28;5785;-74
2022/08/18 08:26:32;;;;;;;;;;;;;;;24.47;61.08;96529.59;4200266;28;5718;-74
2022/08/18 08:28:44;;;;;;;;;;;;;;;24.50;60.91;96531.72;4200177;28;6509;-74
2022/08/18 08:30:55;;;;;;;;;;;;;;;24.53;60.60;96528.44;4199888;28;5702;-74
2022/08/18 08:33:24;;;;;;;;;;;;;;;24.56;60.63;96534.06;4198159;28;5755;-74
2022/08/18 08:35:36;;;;;;;;;;;;;;;24.57;60.59;96526.75;4186244;28;5716;-73
2022/08/18 08:37:56;;;;;;;;;;;;;;;24.56;60.42;96515.13;4186131;28;5728;-75
2022/08/18 08:40:07;;;;;;;;;;;;;;;24.51;60.76;96509.00;4200510;28;5719;-74
2022/08/18 08:42:17;;;;;;;;;;;;;;;24.44;60.62;96478.81;4201062;28;5714;-74
2022/08/18 08:44:40;;;;;;;;;;;;;;;24.44;60.77;96476.13;4199580;28;5635;-73
2022/08/18 08:47:07;;;;;;;;;;;;;;;24.52;60.58;96486.28;4201147;28;6352;-74
2022/08/18 08:49:22;;;;;;;;;;;;;;;24.53;60.28;96496.81;4200786;28;5675;-75
2022/08/18 08:51:34;;;;;;;;;;;;;;;24.53;60.07;96493.31;4200479;28;6229;-74
2022/08/18 08:53:43;;;;;;;;;;;;;;;24.54;60.21;96493.00;4200627;28;5790;-74
2022/08/18 08:55:53;;;;;;;;;;;;;;;24.55;60.26;96491.13;4200464;28;5081;-73
2022/08/18 08:58:19;;;;;;;;;;;;;;;24.56;60.26;96495.41;4200710;28;5683;-73
2022/08/18 09:00:25;;;;;;;;;;;;;;;24.54;59.90;96487.59;4188901;28;5716;-72
2022/08/18 09:02:45;;;;;;;;;;;;;;;24.57;59.69;96494.31;4186418;28;5819;-73
2022/08/18 09:04:55;;;;;;;;;;;;;;;24.56;59.99;96488.13;4175132;28;5815;-74
2022/08/18 09:07:29;;;;;;;;;;;;;;;24.57;59.43;96480.81;4183677;28;5721;-73
2022/08/18 09:10:02;;;;;;;;;;;;;;;24.57;59.50;96476.22;4184049;28;5728;-73
2022/08/18 09:12:36;;;;;;;;;;;;;;;24.60;59.21;96477.56;4183923;28;5787;-73
2022/08/18 09:15:15;;;;;;;;;;;;;;;24.61;59.46;96454.84;4184026;28;5723;-73
2022/08/18 09:17:44;;;;;;;;;;;;;;;24.64;59.54;96448.84;4183424;28;8040;-74
2022/08/18 09:20:08;;;;;;;;;;;;;;;24.66;59.38;96452.84;4182189;28;5886;-74
2022/08/18 09:22:21;;;;;;;;;;;;;;;24.68;59.32;96458.75;4183612;28;5805;-73
2022/08/18 09:24:27;;;;;;;;;;;;;;;24.69;58.92;96462.31;4183526;28;5758;-73
2022/08/18 09:26:40;;;;;;;;;;;;;;;24.65;58.98;96461.25;4183887;28;6381;-72
2022/08/18 09:28:57;;;;;;;;;;;;;;;24.67;58.85;96464.47;4183874;28;5080;-74
2022/08/18 09:31:18;;;;;;;;;;;;;;;24.59;59.00;96457.03;4183767;28;5748;-71
2022/08/18 09:33:33;;;;;;;;;;;;;;;24.61;58.63;96452.94;4190492;28;5683;-71
2022/08/18 09:35:52;;;;;;;;;;;;;;;24.65;58.14;96466.66;4199745;28;6863;-69
2022/08/18 09:43:12;;;;;;;;;;;;;;;24.73;57.30;96463.31;4163608;28;5693;-70
2022/08/18 09:45:54;;;;;;;;;;;;;;;24.77;56.97;96460.81;4148578;28;5926;-70
2022/08/18 09:48:04;;;;;;;;;;;;;;;24.78;56.58;96459.72;4150352;28;5958;-69
2022/08/18 09:50:35;;;;;;;;;;;;;;;24.81;56.40;96459.97;4164750;28;5814;-69
2022/08/18 09:52:49;;;;;;;;;;;;;;;24.84;56.45;96462.09;4164963;28;5777;-65
2022/08/18 09:54:58;;;;;;;;;;;;;;;24.89;56.32;96450.38;4148770;28;5783;-64
2022/08/18 09:57:21;;;;;;;;;;;;;;;24.91;55.96;96445.47;4148891;28;5711;-77
2022/08/18 10:00:07;;;;;;;;;;;;;;;24.95;55.72;96433.78;4148122;28;5843;-65
2022/08/18 10:02:34;;;;;;;;;;;;;;;24.98;55.42;96444.03;4161907;28;5701;-67
2022/08/18 10:04:47;;;;;;;;;;;;;;;25.02;55.01;96443.44;4164783;28;5749;-67
2022/08/18 10:06:52;;;;;;;;;;;;;;;25.04;55.09;96435.88;4164703;28;5685;-67
2022/08/18 10:09:07;;;;;;;;;;;;;;;25.03;54.00;96429.66;4165196;28;7700;-67
2022/08/18 10:11:27;;;;;;;;;;;;;;;24.98;54.36;96432.41;4164822;28;5722;-67
2022/08/18 10:13:41;;;;;;;;;;;;;;;25.01;54.51;96425.59;4164846;28;5705;-67
2022/08/18 10:16:15;;;;;;;;;;;;;;;25.07;53.99;96429.88;4165023;28;5706;-67
2022/08/18 10:18:35;;;;;;;;;;;;;;;25.10;53.91;96429.28;4165000;28;5080;-67
2022/08/18 10:20:53;;;;;;;;;;;;;;;25.16;53.42;96428.09;4180903;28;6431;-66
2022/08/18 10:22:56;;;;;;;;;;;;;;;25.20;53.52;96435.31;4183269;28;5727;-67
2022/08/18 10:24:59;;;;;;;;;;;;;;;25.23;53.32;96432.03;4183244;28;7706;-67
2022/08/18 10:27:46;;;;;;;;;;;;;;;25.33;53.09;96436.47;4183303;28;5716;-67
2022/08/18 10:29:56;;;;;;;;;;;;;;;25.35;52.61;96442.38;4183178;28;5712;-66
2022/08/18 10:32:36;;;;;;;;;;;;;;;25.36;52.49;96444.00;4183526;28;5705;-66
2022/08/18 10:34:43;;;;;;;;;;;;;;;25.38;52.40;96447.22;4182882;28;5869;-63
2022/08/18 10:36:57;;;;;;;;;;;;;;;25.36;52.54;96433.16;4184990;28;5776;-65
2022/08/18 10:39:05;;;;;;;;;;;;;;;25.36;52.54;96426.94;4186434;28;5700;-66
2022/08/18 10:41:18;;;;;;;;;;;;;;;25.41;52.38;96421.47;4193857;28;7234;-66
2022/08/18 10:43:32;;;;;;;;;;;;;;;25.38;51.86;96420.16;4191311;28;5941;-67
2022/08/18 10:45:58;;;;;;;;;;;;;;;25.43;51.97;96411.94;4202777;28;5773;-68
2022/08/18 10:48:23;;;;;;;;;;;;;;;25.42;51.89;96413.06;4186208;28;5757;-68
2022/08/18 10:50:34;;;;;;;;;;;;;;;25.44;51.73;96413.56;4185909;28;5806;-68
2022/08/18 10:53:03;;;;;;;;;;;;;;;25.49;51.27;96405.38;4185814;28;5923;-67
2022/08/18 10:55:48;;;;;;;;;;;;;;;25.46;51.04;96400.53;4185782;28;5712;-68
2022/08/18 10:58:09;;;;;;;;;;;;;;;25.42;51.07;96399.53;4186043;28;6383;-68
2022/08/18 11:00:18;;;;;;;;;;;;;;;25.48;51.06;96408.34;4185403;28;5724;-68
2022/08/18 11:02:42;;;;;;;;;;;;;;;25.50;51.09;96409.66;4201482;28;5840;-71
2022/08/18 11:04:53;;;;;;;;;;;;;;;25.51;50.60;96400.44;4202630;28;5700;-71
2022/08/18 11:07:08;;;;;;;;;;;;;;;25.54;51.02;96405.25;4202288;28;5715;-71
2022/08/18 11:09:12;;;;;;;;;;;;;;;25.55;50.56;96406.84;4202334;28;5707;-71
2022/08/18 11:11:21;;;;;;;;;;;;;;;25.60;50.54;96405.97;4202188;28;5699;-71
2022/08/18 11:13:54;;;;;;;;;;;;;;;25.65;50.50;96419.41;4201581;28;5683;-71
2022/08/18 11:16:08;;;;;;;;;;;;;;;25.69;50.44;96416.91;4202060;28;5715;-71
2022/08/18 11:18:27;;;;;;;;;;;;;;;25.68;50.27;96423.41;4202611;28;7777;-70
2022/08/18 11:20:32;;;;;;;;;;;;;;;25.64;50.16;96417.00;4194348;28;5716;-72
2022/08/18 11:22:48;;;;;;;;;;;;;;;25.62;49.95;96421.91;4194560;28;5892;-73
2022/08/18 11:24:52;;;;;;;;;;;;;;;25.64;49.80;96406.19;4185782;28;5727;-72
2022/08/18 11:26:57;;;;;;;;;;;;;;;25.63;49.65;96407.28;4194247;28;5841;-70
2022/08/18 11:29:01;;;;;;;;;;;;;;;25.58;49.75;96412.78;4202318;28;5778;-71
2022/08/18 11:31:07;;;;;;;;;;;;;;;25.57;49.77;96416.59;4202253;28;5701;-71
2022/08/18 11:33:15;;;;;;;;;;;;;;;25.61;49.84;96417.63;4202126;28;5688;-70
2022/08/18 11:35:30;;;;;;;;;;;;;;;25.65;49.64;96411.28;4201810;28;5707;-70
2022/08/18 11:37:38;;;;;;;;;;;;;;;25.69;49.34;96419.59;4195628;28;5709;-68
2022/08/18 11:39:58;;;;;;;;;;;;;;;25.65;49.57;96418.59;4185207;28;5796;-68
2022/08/18 11:42:02;;;;;;;;;;;;;;;25.61;49.34;96414.91;4197093;28;5963;-69
2022/08/18 11:44:17;;;;;;;;;;;;;;;25.58;49.32;96418.19;4194286;28;5808;-69
2022/08/18 11:46:27;;;;;;;;;;;;;;;25.64;49.00;96422.41;4185382;28;5807;-69
2022/08/18 11:48:38;;;;;;;;;;;;;;;25.65;48.82;96418.59;4185480;28;6386;-69
2022/08/18 11:51:02;;;;;;;;;;;;;;;25.64;49.01;96409.69;4185016;28;5780;-69
2022/08/18 11:53:17;;;;;;;;;;;;;;;25.68;48.69;96410.69;4184927;28;5725;-70
2022/08/18 11:55:32;;;;;;;;;;;;;;;25.75;48.60;96407.63;4185336;28;7705;-70
2022/08/18 11:57:41;;;;;;;;;;;;;;;25.81;48.61;96409.13;4185631;28;5720;-69
2022/08/18 11:59:49;;;;;;;;;;;;;;;25.86;48.29;96413.66;4184351;28;6368;-69
2022/08/18 12:02:04;;;;;;;;;;;;;;;25.90;48.77;96411.94;4184984;28;5705;-69
2022/08/18 12:04:26;;;;;;;;;;;;;;;25.95;48.56;96420.78;4184802;28;5161;-69
2022/08/18 12:06:32;;;;;;;;;;;;;;;25.89;48.36;96418.47;4185108;28;5788;-69
2022/08/18 12:08:38;;;;;;;;;;;;;;;25.86;48.23;96411.75;4185387;28;5812;-69
2022/08/18 12:11:14;;;;;;;;;;;;;;;25.87;48.18;96416.06;4185203;28;6488;-69
2022/08/18 12:13:30;;;;;;;;;;;;;;;25.87;48.30;96412.56;4184953;28;5712;-69
2022/08/18 12:15:35;;;;;;;;;;;;;;;25.90;48.20;96420.06;4184879;28;5724;-69
2022/08/18 12:17:49;;;;;;;;;;;;;;;25.92;47.91;96407.81;4184926;28;5749;-69
2022/08/18 12:19:56;;;;;;;;;;;;;;;25.99;47.83;96418.28;4184599;28;5717;-69
2022/08/18 12:22:01;;;;;;;;;;;;;;;26.01;47.78;96421.47;4199582;28;5699;-69
2022/08/18 12:24:20;;;;;;;;;;;;;;;26.03;47.83;96414.66;4201367;28;6440;-69
2022/08/18 12:26:32;;;;;;;;;;;;;;;26.07;47.85;96410.25;4200155;28;5764;-69
2022/08/18 12:28:49;;;;;;;;;;;;;;;26.09;47.63;96408.03;4200019;28;5639;-70
2022/08/18 12:30:52;;;;;;;;;;;;;;;26.12;47.85;96412.03;4201155;28;5715;-70
2022/08/18 12:32:59;;;;;;;;;;;;;;;26.14;47.85;96415.25;4201067;28;5774;-70
2022/08/18 12:35:12;;;;;;;;;;;;;;;26.16;47.86;96418.44;4201031;28;5695;-70
2022/08/18 12:37:17;;;;;;;;;;;;;;;26.18;47.68;96408.16;4200326;28;7729;-72
2022/08/18 12:39:40;;;;;;;;;;;;;;;26.20;47.50;96418.69;4200986;28;5731;-70
2022/08/18 12:41:47;;;;;;;;;;;;;;;26.22;47.69;96409.13;4191768;28;5749;-70
2022/08/18 12:43:52;;;;;;;;;;;;;;;26.24;47.43;96406.13;4190084;28;5707;-70
2022/08/18 12:46:01;;;;;;;;;;;;;;;26.26;47.61;96409.31;4200812;28;5695;-70
2022/08/18 12:48:05;;;;;;;;;;;;;;;26.28;47.28;96404.44;4189019;28;5713;-70
2022/08/18 12:50:11;;;;;;;;;;;;;;;26.27;47.24;96397.38;4184002;28;5087;-70
2022/08/18 12:52:14;;;;;;;;;;;;;;;26.24;47.34;96404.22;4183905;28;5186;-70
2022/08/18 12:54:19;;;;;;;;;;;;;;;26.26;47.21;96398.47;4191318;28;5691;-70
2022/08/18 12:56:24;;;;;;;;;;;;;;;26.23;47.16;96402.59;4200712;28;6389;-69
2022/08/18 12:58:29;;;;;;;;;;;;;;;26.26;46.98;96406.63;4200686;28;5809;-70
2022/08/18 13:00:39;;;;;;;;;;;;;;;26.24;47.06;96400.69;4198756;28;5813;-70
2022/08/18 13:02:45;;;;;;;;;;;;;;;26.28;46.71;96407.13;4184119;28;5720;-70
2022/08/18 13:04:50;;;;;;;;;;;;;;;26.30;46.80;96404.91;4184074;28;5720;-69
2022/08/18 13:06:57;;;;;;;;;;;;;;;26.32;46.54;96416.25;4183659;28;5705;-69
2022/08/18 13:09:07;;;;;;;;;;;;;;;26.27;46.63;96410.91;4183103;28;5729;-68
2022/08/18 13:11:30;;;;;;;;;;;;;;;26.27;46.54;96405.50;4183987;28;5833;-69
2022/08/18 13:13:38;;;;;;;;;;;;;;;26.30;46.55;96407.63;4182754;28;5717;-69
2022/08/18 13:15:47;;;;;;;;;;;;;;;26.30;46.66;96399.50;4183498;28;5691;-69
2022/08/18 13:18:00;;;;;;;;;;;;;;;26.32;46.83;96405.41;4183947;28;6485;-69
2022/08/18 13:20:06;;;;;;;;;;;;;;;26.33;46.82;96405.09;4183576;28;5703;-70
2022/08/18 13:22:11;;;;;;;;;;;;;;;26.33;47.18;96401.59;4196270;28;5832;-69
2022/08/18 13:24:14;;;;;;;;;;;;;;;26.32;47.00;96410.84;4199984;28;5760;-70
2022/08/18 13:26:27;;;;;;;;;;;;;;;26.30;46.95;96408.44;4200443;28;5713;-70
2022/08/18 13:28:32;;;;;;;;;;;;;;;26.29;47.16;96411.44;4198857;28;5703;-70
2022/08/18 13:30:56;;;;;;;;;;;;;;;26.27;47.07;96403.59;4200160;28;5730;-70
2022/08/18 13:33:00;;;;;;;;;;;;;;;26.27;47.37;96410.91;4199975;28;5731;-70
2022/08/18 13:35:23;;;;;;;;;;;;;;;26.27;47.57;96394.66;4200284;28;5724;-70
2022/08/18 13:37:32;;;;;;;;;;;;;;;26.26;47.69;96399.28;4200283;28;5696;-69
2022/08/18 13:39:35;;;;;;;;;;;;;;;26.26;47.79;96406.63;4200044;28;6373;-70
2022/08/18 13:41:40;;;;;;;;;;;;;;;26.24;47.76;96398.00;4191861;28;5807;-69
2022/08/18 13:43:47;;;;;;;;;;;;;;;26.25;47.81;96405.81;4188754;28;5722;-69
2022/08/18 13:45:50;;;;;;;;;;;;;;;26.27;47.81;96405.50;4199716;28;5808;-69
2022/08/18 13:47:59;;;;;;;;;;;;;;;26.29;47.86;96406.03;4200241;28;5786;-69
2022/08/18 13:50:04;;;;;;;;;;;;;;;26.30;47.85;96411.13;4200273;28;5703;-69
2022/08/18 13:52:13;;;;;;;;;;;;;;;26.32;47.52;96410.84;4200089;28;5796;-70
2022/08/18 13:54:35;;;;;;;;;;;;;;;26.31;47.87;96407.31;4200171;28;5801;-69
2022/08/18 13:56:40;;;;;;;;;;;;;;;26.34;47.73;96414.03;4200340;28;5762;-69
2022/08/18 13:58:53;;;;;;;;;;;;;;;26.34;47.96;96412.13;4199982;28;5699;-69
2022/08/18 14:00:56;;;;;;;;;;;;;;;26.34;48.01;96414.03;4181615;28;5921;-69
2022/08/18 14:03:22;;;;;;;;;;;;;;;26.33;47.76;96412.44;4183604;28;5791;-70
2022/08/18 14:05:47;;;;;;;;;;;;;;;26.33;48.04;96407.81;4183152;28;5713;-70
2022/08/18 14:07:54;;;;;;;;;;;;;;;26.34;48.08;96408.63;4183531;28;5721;-70
2022/08/18 14:09:59;;;;;;;;;;;;;;;26.34;48.01;96403.19;4183364;28;5823;-69
2022/08/18 14:12:13;;;;;;;;;;;;;;;26.36;47.76;96406.41;4185805;28;6037;-70
2022/08/18 14:14:25;;;;;;;;;;;;;;;26.34;48.13;96405.91;4192765;28;5692;-69
2022/08/18 14:16:30;;;;;;;;;;;;;;;26.34;48.10;96404.00;4198970;28;5700;-70
2022/08/18 14:18:34;;;;;;;;;;;;;;;26.32;47.97;96398.09;4190498;28;5722;-69
2022/08/18 14:28:01;;;;;;;;;;;;;;;26.32;48.05;96400.78;4136435;28;5906;-69
2022/08/18 14:30:09;;;;;;;;;;;;;;;26.34;48.07;96409.41;4147305;28;5832;-69
2022/08/18 14:32:12;;;;;;;;;;;;;;;26.33;48.27;96407.81;4134720;28;5913;-69
2022/08/18 14:34:25;;;;;;;;;;;;;;;26.32;48.16;96405.41;4134450;28;5824;-69
2022/08/18 14:36:30;;;;;;;;;;;;;;;26.32;48.09;96411.63;4129664;28;5895;-69
2022/08/18 14:38:34;;;;;;;;;;;;;;;26.32;48.39;96410.84;4144377;28;5803;-69
2022/08/18 14:40:38;;;;;;;;;;;;;;;26.31;48.33;96403.81;4138134;28;5851;-69
2022/08/18 14:42:45;;;;;;;;;;;;;;;26.30;48.28;96396.78;4134419;28;5847;-70
2022/08/18 14:44:57;;;;;;;;;;;;;;;26.30;47.86;96402.22;4141984;28;5831;-68
2022/08/18 14:47:20;;;;;;;;;;;;;;;26.29;47.92;96400.59;4133305;28;5765;-70
2022/08/18 14:49:29;;;;;;;;;;;;;;;26.28;47.90;96407.13;4143711;28;5787;-69
2022/08/18 14:51:33;;;;;;;;;;;;;;;26.27;48.17;96395.47;4138094;28;5843;-70
2022/08/18 14:53:36;;;;;;;;;;;;;;;26.28;48.02;96405.22;4147790;28;6667;-70
2022/08/18 14:55:39;;;;;;;;;;;;;;;26.26;48.14;96404.69;4146820;28;5939;-70
2022/08/18 14:57:42;;;;;;;;;;;;;;;26.22;48.25;96403.72;4134487;28;8502;-69
2022/08/18 14:59:47;;;;;;;;;;;;;;;26.21;48.12;96404.03;4152716;28;5868;-69
2022/08/18 15:01:49;;;;;;;;;;;;;;;26.20;48.19;96397.81;4190788;28;7479;-69
2022/08/18 15:03:53;;;;;;;;;;;;;;;26.20;48.22;96403.22;4199578;28;5704;-70
2022/08/18 15:05:59;;;;;;;;;;;;;;;26.19;47.93;96403.53;4202016;28;7932;-69
2022/08/18 15:08:03;;;;;;;;;;;;;;;26.17;48.03;96408.44;4202365;28;5702;-70
2022/08/18 15:10:08;;;;;;;;;;;;;;;26.16;47.81;96409.53;4202521;28;5703;-69
2022/08/18 15:12:19;;;;;;;;;;;;;;;26.13;47.91;96413.66;4201363;28;5735;-70
2022/08/18 15:14:22;;;;;;;;;;;;;;;26.10;48.17;96412.34;4202257;28;5715;-70
2022/08/18 15:16:35;;;;;;;;;;;;;;;26.10;48.13;96416.97;4185681;28;5949;-68
2022/08/18 15:18:41;;;;;;;;;;;;;;;26.09;48.07;96407.25;4186100;28;5815;-71
2022/08/18 15:25:49;;;;;;;;;;;;;;;26.05;48.17;96419.78;4134374;28;5790;-70
2022/08/18 15:27:53;;;;;;;;;;;;;;;26.04;48.54;96418.97;4140755;28;7126;-70
2022/08/18 15:29:56;;;;;;;;;;;;;;;26.04;48.42;96415.44;4150214;28;5852;-70
2022/08/18 15:32:01;;;;;;;;;;;;;;;26.04;48.39;96420.88;4150625;28;5898;-70
2022/08/18 15:34:12;;;;;;;;;;;;;;;26.02;48.42;96421.16;4140459;28;5756;-70
2022/08/18 15:36:20;;;;;;;;;;;;;;;26.02;48.41;96423.06;4144974;28;6641;-70
2022/08/18 15:38:32;;;;;;;;;;;;;;;26.02;48.22;96426.59;4134377;28;5719;-69
2022/08/18 15:40:35;;;;;;;;;;;;;;;26.03;48.31;96430.09;4128588;28;5855;-69
2022/08/18 15:42:49;;;;;;;;;;;;;;;26.02;48.32;96428.50;4144031;28;5827;-69
2022/08/18 15:44:52;;;;;;;;;;;;;;;25.99;48.27;96435.31;4142570;28;6659;-69
2022/08/18 15:46:55;;;;;;;;;;;;;;;25.97;48.35;96434.81;4144168;28;5847;-69
2022/08/18 15:48:59;;;;;;;;;;;;;;;25.97;48.35;96442.16;4143833;28;5851;-69
2022/08/18 15:51:04;;;;;;;;;;;;;;;25.97;48.44;96434.81;4131067;28;5770;-70
2022/08/18 15:53:14;;;;;;;;;;;;;;;25.98;48.41;96432.91;4146745;28;5891;-70
2022/08/18 15:55:19;;;;;;;;;;;;;;;25.98;48.58;96446.47;4131285;28;7796;-69
2022/08/18 15:57:25;;;;;;;;;;;;;;;25.98;48.67;96443.75;4173914;28;5736;-70
2022/08/18 15:59:41;;;;;;;;;;;;;;;25.97;48.45;96442.94;4188480;28;7161;-70
2022/08/18 16:01:45;;;;;;;;;;;;;;;25.96;48.76;96441.34;4190158;28;5107;-70
2022/08/18 16:03:53;;;;;;;;;;;;;;;25.95;48.34;96439.75;4185446;28;5926;-70
2022/08/18 16:05:56;;;;;;;;;;;;;;;25.93;48.42;96436.50;4195178;28;5729;-70
2022/08/18 16:08:00;;;;;;;;;;;;;;;25.92;48.61;96442.22;4188732;28;5123;-70
2022/08/18 16:10:04;;;;;;;;;;;;;;;25.92;48.62;96431.41;4187295;28;5873;-69
2022/08/18 16:12:09;;;;;;;;;;;;;;;25.89;48.85;96430.09;4186662;28;5816;-69
2022/08/18 16:14:12;;;;;;;;;;;;;;;25.90;48.65;96431.69;4185794;28;5930;-68
2022/08/18 16:16:18;;;;;;;;;;;;;;;25.91;48.57;96427.09;4193765;28;6369;-68
2022/08/18 16:18:39;;;;;;;;;;;;;;;25.91;48.65;96425.19;4192841;28;6730;-71
2022/08/18 16:20:43;;;;;;;;;;;;;;;25.91;48.90;96427.09;4197775;28;6471;-69
2022/08/18 16:22:47;;;;;;;;;;;;;;;25.91;48.95;96424.38;4185904;28;5720;-68
2022/08/18 16:24:50;;;;;;;;;;;;;;;25.92;48.61;96423.28;4190809;28;5695;-68
2022/08/18 16:26:57;;;;;;;;;;;;;;;25.90;48.83;96420.88;4198194;28;5812;-68
2022/08/18 16:29:01;;;;;;;;;;;;;;;25.88;48.79;96416.88;4194370;28;5695;-69
2022/08/18 16:31:04;;;;;;;;;;;;;;;25.87;48.98;96416.06;4198413;28;5699;-68
2022/08/18 16:33:08;;;;;;;;;;;;;;;25.87;48.82;96421.47;4189840;28;5772;-68
2022/08/18 16:35:11;;;;;;;;;;;;;;;25.88;48.87;96430.41;4197750;28;6413;-68
2022/08/18 16:37:14;;;;;;;;;;;;;;;25.88;49.07;96428.50;4195201;28;6182;-67
2022/08/18 16:39:18;;;;;;;;;;;;;;;25.88;48.84;96428.50;4196785;28;5778;-69
2022/08/18 16:41:21;;;;;;;;;;;;;;;25.88;48.82;96433.91;4196439;28;6496;-71
2022/08/18 16:43:26;;;;;;;;;;;;;;;25.87;49.22;96429.59;4197860;28;5694;-71
2022/08/18 16:45:31;;;;;;;;;;;;;;;25.86;49.20;96430.72;4196768;28;5783;-71
2022/08/18 16:47:37;;;;;;;;;;;;;;;25.86;49.24;96427.19;4198681;28;5711;-71
2022/08/18 16:49:40;;;;;;;;;;;;;;;25.86;49.24;96428.00;4196946;28;5699;-69
2022/08/18 16:51:44;;;;;;;;;;;;;;;25.86;49.31;96424.50;4196614;28;5801;-70
2022/08/18 16:53:48;;;;;;;;;;;;;;;25.86;49.45;96425.28;4198601;28;5756;-71
2022/08/18 16:55:51;;;;;;;;;;;;;;;25.83;49.35;96421.28;4193928;28;5692;-70
2022/08/18 17:05:01;;;;;;;;;;;;;;;25.78;49.53;96415.16;4188268;28;5687;-69
2022/08/18 17:07:06;;;;;;;;;;;;;;;25.74;49.24;96412.25;4195153;28;5705;-68
2022/08/18 17:09:09;;;;;;;;;;;;;;;25.70;49.09;96405.81;4199067;28;5786;-69
2022/08/18 17:11:15;;;;;;;;;;;;;;;25.72;49.17;96416.34;4197046;28;5758;-69
2022/08/18 17:13:18;;;;;;;;;;;;;;;25.72;48.76;96410.94;4198052;28;6558;-68
2022/08/18 17:15:21;;;;;;;;;;;;;;;25.71;49.00;96412.00;4196745;28;5703;-68
2022/08/18 17:17:24;;;;;;;;;;;;;;;25.70;48.60;96411.22;4196744;28;5770;-70
2022/08/18 17:19:32;;;;;;;;;;;;;;;25.69;48.76;96406.06;4189733;28;5814;-69
2022/08/18 17:21:36;;;;;;;;;;;;;;;25.69;48.63;96401.50;4196807;28;5703;-69
2022/08/18 17:23:40;;;;;;;;;;;;;;;25.70;48.61;96394.16;4190023;28;5752;-70
2022/08/18 17:25:45;;;;;;;;;;;;;;;25.72;48.74;96398.22;4196848;28;5703;-64
2022/08/18 17:27:50;;;;;;;;;;;;;;;25.74;48.58;96398.72;4196680;28;5688;-65
2022/08/18 17:30:02;;;;;;;;;;;;;;;25.72;48.38;96398.22;4183257;28;5986;-62
2022/08/18 17:32:11;;;;;;;;;;;;;;;25.70;48.15;96399.59;4184375;28;5894;-72
2022/08/18 17:34:15;;;;;;;;;;;;;;;25.64;48.16;96395.34;4199656;28;5704;-66
2022/08/18 17:36:28;;;;;;;;;;;;;;;25.63;48.11;96405.38;4199449;28;5787;-63
2022/08/18 17:38:36;;;;;;;;;;;;;;;25.61;48.10;96398.66;4199103;28;5707;-63
2022/08/18 17:40:43;;;;;;;;;;;;;;;25.59;48.06;96395.44;4197435;28;5695;-67
2022/08/18 17:42:48;;;;;;;;;;;;;;;25.58;48.29;96399.25;4193164;28;5711;-65
2022/08/18 17:44:57;;;;;;;;;;;;;;;25.58;48.47;96396.53;4197381;28;7702;-66
2022/08/18 17:47:04;;;;;;;;;;;;;;;25.57;48.24;96392.22;4200400;28;5071;-66
2022/08/18 17:49:17;;;;;;;;;;;;;;;25.54;48.43;96397.13;4199724;28;5106;-67
2022/08/18 17:51:36;;;;;;;;;;;;;;;25.51;48.17;96392.31;4183878;28;5804;-61
2022/08/18 17:53:45;;;;;;;;;;;;;;;25.55;48.47;96400.66;4195782;28;5711;-61
2022/08/18 17:55:52;;;;;;;;;;;;;;;25.55;48.19;96398.75;4190837;28;5785;-61
2022/08/18 17:58:01;;;;;;;;;;;;;;;25.57;48.19;96401.16;4199960;28;5435;-62
2022/08/18 18:00:08;;;;;;;;;;;;;;;25.57;48.08;96411.16;4199471;28;5755;-61